Titan — ZCED2 — position and weather

sailwx.info

Track history (hours):
 
Tides and Currents Weather Stations Pressure Air Temp Water Temp Dewpoint Dewpoint Depression Visibility Wind Speed Wind Dir Waves Ship Positions

Titan

Last reported at 2017-Aug-19 08:52 UTC. Time now 2017-Aug-19 09:24 UTC.
Position N 40°49' E 014°14'.

Length 80 m; draft 3.5 m.

Type: Pleasure craft. MMSI: 310598000.

Date/timePositionNaut miles runAvg speedWind from/ knotsBaromVisibWave heightAir tempDewpointWater temp
2017-Aug-19 08:52N 40°49' E 014°14'0 0.0
2017-Aug-19 08:28N 40°49' E 014°14'0 0.0
2017-Aug-19 07:58N 40°49' E 014°14'0 0.0
2017-Aug-19 07:25N 40°49' E 014°14'0 0.0
2017-Aug-19 06:58N 40°49' E 014°14'4 2.3
2017-Aug-19 05:26N 40°46' E 014°15'612.8
2017-Aug-19 04:59N 40°40' E 014°16'713.1
2017-Aug-19 04:28N 40°33' E 014°16'2 3.9
2017-Aug-19 03:58N 40°32' E 014°14'0 0.0
2017-Aug-19 03:28N 40°32' E 014°14'0 0.0
2017-Aug-19 02:58N 40°32' E 014°14'0 0.0
2017-Aug-19 02:28N 40°32' E 014°14'0 0.0
2017-Aug-19 01:58N 40°32' E 014°14'0 0.0
2017-Aug-19 01:22N 40°32' E 014°14'0 0.0
2017-Aug-19 00:58N 40°32' E 014°14'0 0.0
2017-Aug-19 00:28N 40°32' E 014°14'0 0.0
2017-Aug-18 23:58N 40°32' E 014°14'0 0.0
2017-Aug-18 23:13N 40°32' E 014°14'0 0.0
2017-Aug-18 22:49N 40°32' E 014°14'0 0.0
2017-Aug-18 22:25N 40°32' E 014°14'0 0.0
2017-Aug-18 21:58N 40°32' E 014°14'0 0.0
2017-Aug-18 21:28N 40°32' E 014°14'0 0.0
2017-Aug-18 20:52N 40°32' E 014°14'0 0.0
2017-Aug-18 20:25N 40°32' E 014°14'0 0.0
2017-Aug-18 19:52N 40°32' E 014°14'0 0.0
2017-Aug-18 19:19N 40°32' E 014°14'0 0.1
2017-Aug-18 18:58N 40°32' E 014°14'0 0.1
2017-Aug-18 18:28N 40°32' E 014°14'0 0.0
2017-Aug-18 17:58N 40°32' E 014°14'0 0.0
2017-Aug-18 17:25N 40°32' E 014°14'0 0.0
2017-Aug-18 16:46N 40°32' E 014°14'0 0.0
2017-Aug-18 16:25N 40°32' E 014°14'0 0.1
2017-Aug-18 15:55N 40°32' E 014°14'0 0.0
2017-Aug-18 15:25N 40°32' E 014°14'0 0.0
2017-Aug-18 14:52N 40°32' E 014°14'0 0.1
2017-Aug-18 14:28N 40°32' E 014°14'7 7.8
2017-Aug-18 13:30N 40°33' E 014°24'612.2
2017-Aug-18 13:00N 40°35' E 014°32'2 0.1
2017-Aug-17 17:44N 40°36' E 014°31'0 0.2
2017-Aug-17 15:08N 40°37' E 014°31'0 0.2
2017-Aug-17 14:55N 40°37' E 014°31'4 9.6
2017-Aug-17 14:30N 40°34' E 014°27'712.4
2017-Aug-17 13:58N 40°33' E 014°19'4 1.5
2017-Aug-17 11:23N 40°34' E 014°14'0 0.0
2017-Aug-17 10:59N 40°34' E 014°14'1 0.0
2017-Aug-16 17:53N 40°34' E 014°14'513.4
2017-Aug-16 17:30N 40°39' E 014°14'713.5
2017-Aug-16 17:00N 40°46' E 014°14'3 4.7
2017-Aug-16 16:19N 40°49' E 014°14'0 0.0
2017-Aug-16 15:58N 40°49' E 014°14'0 0.0
2017-Aug-16 15:28N 40°49' E 014°14'0 0.0
2017-Aug-16 14:37N 40°50' E 014°14'0 0.0
2017-Aug-16 14:22N 40°50' E 014°14'0 0.0
2017-Aug-16 13:55N 40°50' E 014°14'0 0.7
2017-Aug-16 13:31N 40°49' E 014°15'612.0
2017-Aug-16 13:00N 40°44' E 014°19'612.8
2017-Aug-16 12:30N 40°39' E 014°23'1 0.8
2017-Aug-16 11:49N 40°38' E 014°23'0 0.0
2017-Aug-16 11:19N 40°38' E 014°23'0 0.0
2017-Aug-16 10:52N 40°38' E 014°23'0 0.0
2017-Aug-16 10:22N 40°38' E 014°23'0 0.1
2017-Aug-16 09:52N 40°38' E 014°23'0 0.0
2017-Aug-16 09:22N 40°38' E 014°23'0 0.0
2017-Aug-16 08:55N 40°38' E 014°23'0 0.0
2017-Aug-16 08:25N 40°38' E 014°23'0 0.0
2017-Aug-16 07:55N 40°38' E 014°23'0 0.0
2017-Aug-16 07:25N 40°38' E 014°23'0 0.0
2017-Aug-16 06:55N 40°38' E 014°23'0 0.0
2017-Aug-16 06:25N 40°38' E 014°23'0 0.2
2017-Aug-16 06:00N 40°38' E 014°23'5 9.4
2017-Aug-16 05:29N 40°36' E 014°17'7012.4
2017-Aug-15 23:48N 39°31' E 014°51'68 2.4
2017-Aug-14 19:53N 38°30' E 015°31'514.4
2017-Aug-14 19:31N 38°26' E 015°35'714.3
2017-Aug-14 19:01N 38°20' E 015°41'510.6
2017-Aug-14 18:30N 38°15' E 015°40'612.3
2017-Aug-14 18:00N 38°10' E 015°37'713.2
2017-Aug-14 17:30N 38°03' E 015°35'713.8
2017-Aug-14 17:00N 37°57' E 015°30'714.2
2017-Aug-14 16:30N 37°53' E 015°23'510.4
2017-Aug-14 16:00N 37°50' E 015°17'0 0.0
2017-Aug-13 14:04N 37°50' E 015°17'0 0.1
2017-Aug-13 13:49N 37°50' E 015°17'9 0.4
2017-Aug-12 14:40N 37°50' E 015°28'714.6
2017-Aug-12 14:10N 37°51' E 015°37'215.1
2017-Aug-12 14:00N 37°51' E 015°40'1115.3
2017-Aug-12 13:18N 37°51' E 015°54'15511.3
2017-Aug-11 23:37N 39°26' E 018°32'111.5
2017-Aug-11 23:30N 39°26' E 018°33'1011.2
2017-Aug-11 22:37N 39°31' E 018°45'  
Track history (hours):
 
Tides and Currents Weather Stations Pressure Air Temp Water Temp Dewpoint Dewpoint Depression Visibility Wind Speed Wind Dir Waves Ship Positions

Titan

Last reported at 2017-Aug-19 08:52 UTC. Time now 2017-Aug-19 09:24 UTC.
Position N 40°49' E 014°14'.

Length 80 m; draft 3.5 m.

Type: Pleasure craft. MMSI: 310598000.

Date/timePositionNaut miles runAvg speedWind from/ knotsBaromVisibWave heightAir tempDewpointWater temp
2017-Aug-19 08:52N 40°49' E 014°14'0 0.0
2017-Aug-19 08:28N 40°49' E 014°14'0 0.0
2017-Aug-19 07:58N 40°49' E 014°14'0 0.0
2017-Aug-19 07:25N 40°49' E 014°14'0 0.0
2017-Aug-19 06:58N 40°49' E 014°14'4 2.3
2017-Aug-19 05:26N 40°46' E 014°15'612.8
2017-Aug-19 04:59N 40°40' E 014°16'713.1
2017-Aug-19 04:28N 40°33' E 014°16'2 3.9
2017-Aug-19 03:58N 40°32' E 014°14'0 0.0
2017-Aug-19 03:28N 40°32' E 014°14'0 0.0
2017-Aug-19 02:58N 40°32' E 014°14'0 0.0
2017-Aug-19 02:28N 40°32' E 014°14'0 0.0
2017-Aug-19 01:58N 40°32' E 014°14'0 0.0
2017-Aug-19 01:22N 40°32' E 014°14'0 0.0
2017-Aug-19 00:58N 40°32' E 014°14'0 0.0
2017-Aug-19 00:28N 40°32' E 014°14'0 0.0
2017-Aug-18 23:58N 40°32' E 014°14'0 0.0
2017-Aug-18 23:13N 40°32' E 014°14'0 0.0
2017-Aug-18 22:49N 40°32' E 014°14'0 0.0
2017-Aug-18 22:25N 40°32' E 014°14'0 0.0
2017-Aug-18 21:58N 40°32' E 014°14'0 0.0
2017-Aug-18 21:28N 40°32' E 014°14'0 0.0
2017-Aug-18 20:52N 40°32' E 014°14'0 0.0
2017-Aug-18 20:25N 40°32' E 014°14'0 0.0
2017-Aug-18 19:52N 40°32' E 014°14'0 0.0
2017-Aug-18 19:19N 40°32' E 014°14'0 0.1
2017-Aug-18 18:58N 40°32' E 014°14'0 0.1
2017-Aug-18 18:28N 40°32' E 014°14'0 0.0
2017-Aug-18 17:58N 40°32' E 014°14'0 0.0
2017-Aug-18 17:25N 40°32' E 014°14'0 0.0
2017-Aug-18 16:46N 40°32' E 014°14'0 0.0
2017-Aug-18 16:25N 40°32' E 014°14'0 0.1
2017-Aug-18 15:55N 40°32' E 014°14'0 0.0
2017-Aug-18 15:25N 40°32' E 014°14'0 0.0
2017-Aug-18 14:52N 40°32' E 014°14'0 0.1
2017-Aug-18 14:28N 40°32' E 014°14'7 7.8
2017-Aug-18 13:30N 40°33' E 014°24'612.2
2017-Aug-18 13:00N 40°35' E 014°32'2 0.1
2017-Aug-17 17:44N 40°36' E 014°31'0 0.2
2017-Aug-17 15:08N 40°37' E 014°31'0 0.2
2017-Aug-17 14:55N 40°37' E 014°31'4 9.6
2017-Aug-17 14:30N 40°34' E 014°27'712.4
2017-Aug-17 13:58N 40°33' E 014°19'4 1.5
2017-Aug-17 11:23N 40°34' E 014°14'0 0.0
2017-Aug-17 10:59N 40°34' E 014°14'1 0.0
2017-Aug-16 17:53N 40°34' E 014°14'513.4
2017-Aug-16 17:30N 40°39' E 014°14'713.5
2017-Aug-16 17:00N 40°46' E 014°14'3 4.7
2017-Aug-16 16:19N 40°49' E 014°14'0 0.0
2017-Aug-16 15:58N 40°49' E 014°14'0 0.0
2017-Aug-16 15:28N 40°49' E 014°14'0 0.0
2017-Aug-16 14:37N 40°50' E 014°14'0 0.0
2017-Aug-16 14:22N 40°50' E 014°14'0 0.0
2017-Aug-16 13:55N 40°50' E 014°14'0 0.7
2017-Aug-16 13:31N 40°49' E 014°15'612.0
2017-Aug-16 13:00N 40°44' E 014°19'612.8
2017-Aug-16 12:30N 40°39' E 014°23'1 0.8
2017-Aug-16 11:49N 40°38' E 014°23'0 0.0
2017-Aug-16 11:19N 40°38' E 014°23'0 0.0
2017-Aug-16 10:52N 40°38' E 014°23'0 0.0
2017-Aug-16 10:22N 40°38' E 014°23'0 0.1
2017-Aug-16 09:52N 40°38' E 014°23'0 0.0
2017-Aug-16 09:22N 40°38' E 014°23'0 0.0
2017-Aug-16 08:55N 40°38' E 014°23'0 0.0
2017-Aug-16 08:25N 40°38' E 014°23'0 0.0
2017-Aug-16 07:55N 40°38' E 014°23'0 0.0
2017-Aug-16 07:25N 40°38' E 014°23'0 0.0
2017-Aug-16 06:55N 40°38' E 014°23'0 0.0
2017-Aug-16 06:25N 40°38' E 014°23'0 0.2
2017-Aug-16 06:00N 40°38' E 014°23'5 9.4
2017-Aug-16 05:29N 40°36' E 014°17'7012.4
2017-Aug-15 23:48N 39°31' E 014°51'68 2.4
2017-Aug-14 19:53N 38°30' E 015°31'514.4
2017-Aug-14 19:31N 38°26' E 015°35'714.3
2017-Aug-14 19:01N 38°20' E 015°41'510.6
2017-Aug-14 18:30N 38°15' E 015°40'612.3
2017-Aug-14 18:00N 38°10' E 015°37'713.2
2017-Aug-14 17:30N 38°03' E 015°35'713.8
2017-Aug-14 17:00N 37°57' E 015°30'714.2
2017-Aug-14 16:30N 37°53' E 015°23'510.4
2017-Aug-14 16:00N 37°50' E 015°17'0 0.0
2017-Aug-13 14:04N 37°50' E 015°17'0 0.1
2017-Aug-13 13:49N 37°50' E 015°17'9 0.4
2017-Aug-12 14:40N 37°50' E 015°28'714.6
2017-Aug-12 14:10N 37°51' E 015°37'215.1
2017-Aug-12 14:00N 37°51' E 015°40'1115.3
2017-Aug-12 13:18N 37°51' E 015°54'15511.3
2017-Aug-11 23:37N 39°26' E 018°32'111.5
2017-Aug-11 23:30N 39°26' E 018°33'1011.2
2017-Aug-11 22:37N 39°31' E 018°45'  

Dump ship's entire track history